This is the latest recevied weather packets stored in our database for station/object IT9DBI-3. If no packets are shown the sender has not sent any weather packets the latest 10 day(s).
| Time | Temp. | Humidity | Pressure | Rain* | Wind** | Luminosity | Snow |
|---|---|---|---|---|---|---|---|
| 1778111435 | 20° C | 33% | 1011.6 hPa | - | - | - | - |
| 1778110234 | 20° C | 32% | 1011.6 hPa | - | - | - | - |
| 1778109032 | 20° C | 31% | 1011.8 hPa | - | - | - | - |
| 1778107831 | 20° C | 30% | 1011.8 hPa | - | - | - | - |
| 1778106629 | 20.56° C | 28% | 1011.7 hPa | - | - | - | - |
| 1778105428 | 21.11° C | 25% | 1011.8 hPa | - | - | - | - |
| 1778104223 | 21.11° C | 23% | 1011 hPa | - | - | - | - |
| 1778103022 | 20.56° C | 25% | 1011.1 hPa | - | - | - | - |
| 1778101820 | 18.89° C | 33% | 1010.4 hPa | - | - | - | - |
| 1778100622 | 18.33° C | 38% | 1011.1 hPa | - | - | - | - |
| 1778099417 | 18.89° C | 35% | 1011.2 hPa | - | - | - | - |
| 1778098215 | 19.44° C | 28% | 1011.6 hPa | - | - | - | - |
| 1778097013 | 20° C | 24% | 1012 hPa | - | - | - | - |
| 1778095812 | 20° C | 25% | 1011.9 hPa | - | - | - | - |
| 1778094610 | 18.89° C | 51% | 1012 hPa | - | - | - | - |
| 1778093409 | 18.89° C | 53% | 1012.2 hPa | - | - | - | - |
| 1778092208 | 18.89° C | 60% | 1012.2 hPa | - | - | - | - |
| 1778091003 | 19.44° C | 57% | 1012.2 hPa | - | - | - | - |
| 1778089802 | 20° C | 57% | 1012 hPa | - | - | - | - |
| 1778088600 | 20.56° C | 55% | 1011.6 hPa | - | - | - | - |
| 1778087396 | 21.11° C | 55% | 1011.6 hPa | - | - | - | - |
| 1778086194 | 21.67° C | 57% | 1011.9 hPa | - | - | - | - |
| 1778084993 | 21.67° C | 61% | 1011.9 hPa | - | - | - | - |
| 1778083792 | 22.22° C | 44% | 1011.9 hPa | - | - | - | - |
| 1778082590 | 24.44° C | 28% | 1011.8 hPa | - | - | - | - |
* Rain since midnight (hover to see other rain measurements)
** Current wind speed in m/s (hover to see current wind gust speed)